createdAt,value
2023-03-17T06:49:43.197Z,931.31
2023-03-17T06:50:43.186Z,931.32
2023-03-17T06:51:43.230Z,931.37
2023-03-17T06:52:44.968Z,931.32
2023-03-17T06:53:43.099Z,931.31
2023-03-17T06:54:43.134Z,931.35
2023-03-17T06:55:43.125Z,931.40
2023-03-17T06:56:43.146Z,931.36
2023-03-17T06:57:43.062Z,931.33
2023-03-17T06:58:43.056Z,931.35
2023-03-17T06:59:43.052Z,931.37
2023-03-17T07:00:43.297Z,931.42
2023-03-17T07:01:43.033Z,931.40
2023-03-17T07:02:43.027Z,931.41
2023-03-17T07:03:42.952Z,931.52
2023-03-17T07:04:43.036Z,931.58
2023-03-17T07:05:43.012Z,931.50
2023-03-17T07:06:42.975Z,931.48
2023-03-17T07:07:42.938Z,931.58
2023-03-17T07:08:42.944Z,931.46
2023-03-17T07:09:42.880Z,931.53
2023-03-17T07:10:42.972Z,931.53
2023-03-17T07:11:42.899Z,931.47
2023-03-17T07:12:42.845Z,931.41
2023-03-17T07:13:42.908Z,931.40
2023-03-17T07:14:42.897Z,931.46
2023-03-17T07:15:42.856Z,931.44
2023-03-17T07:16:42.871Z,931.42
2023-03-17T07:17:42.889Z,931.48
2023-03-17T07:18:42.771Z,931.44
2023-03-17T07:19:42.903Z,931.43
2023-03-17T07:20:42.773Z,931.41
2023-03-17T07:21:42.753Z,931.43
2023-03-17T07:22:42.766Z,931.44
2023-03-17T07:23:42.784Z,931.46
2023-03-17T07:24:42.736Z,931.46
2023-03-17T07:25:42.745Z,931.48
2023-03-17T07:26:42.656Z,931.44
2023-03-17T07:27:42.643Z,931.45
2023-03-17T07:28:42.694Z,931.50
2023-03-17T07:29:42.657Z,931.42
2023-03-17T07:30:42.730Z,931.41
2023-03-17T07:31:43.045Z,931.42
2023-03-17T07:32:42.678Z,931.45
2023-03-17T07:33:42.669Z,931.41
2023-03-17T07:34:42.770Z,931.37
2023-03-17T07:35:42.633Z,931.36
2023-03-17T07:36:42.642Z,931.41
2023-03-17T07:37:42.547Z,931.41
2023-03-17T07:38:42.538Z,931.35
2023-03-17T07:39:42.540Z,931.34
2023-03-17T07:40:42.511Z,931.33
2023-03-17T07:41:42.507Z,931.30
2023-03-17T07:42:42.511Z,931.21
2023-03-17T07:43:42.494Z,931.29
2023-03-17T07:44:42.484Z,931.33
2023-03-17T07:45:42.436Z,931.32
2023-03-17T07:46:42.460Z,931.32
2023-03-17T07:47:42.383Z,931.32
2023-03-17T07:48:42.435Z,931.34
2023-03-17T07:49:42.625Z,931.33
2023-03-17T07:50:42.359Z,931.41
2023-03-17T07:51:42.341Z,931.30
2023-03-17T07:52:42.363Z,931.31
2023-03-17T07:53:42.343Z,931.34
2023-03-17T07:54:43.189Z,931.31
2023-03-17T07:55:42.296Z,931.34
2023-03-17T07:56:42.382Z,931.32
2023-03-17T07:57:42.333Z,931.31
2023-03-17T07:58:42.300Z,931.30
2023-03-17T07:59:42.292Z,931.25
2023-03-17T08:00:42.307Z,931.37
2023-03-17T08:01:42.276Z,931.31
2023-03-17T08:02:42.355Z,931.30
2023-03-17T08:03:42.246Z,931.28
2023-03-17T08:04:42.168Z,931.33
2023-03-17T08:05:42.184Z,931.32
2023-03-17T08:06:42.140Z,931.27
2023-03-17T08:07:42.233Z,931.31
2023-03-17T08:08:42.176Z,931.26
2023-03-17T08:09:42.128Z,931.26
2023-03-17T08:10:42.096Z,931.27
2023-03-17T08:11:42.107Z,931.26
2023-03-17T08:12:42.055Z,931.24
2023-03-17T08:13:42.076Z,931.25
2023-03-17T08:14:42.050Z,931.18
2023-03-17T08:15:42.013Z,931.24
2023-03-17T08:16:42.132Z,931.19
2023-03-17T08:17:42.005Z,931.16
2023-03-17T08:18:42.020Z,931.17
2023-03-17T08:19:42.074Z,931.15
2023-03-17T08:20:42.025Z,931.14
2023-03-17T08:21:41.961Z,931.11
2023-03-17T08:22:41.971Z,931.23
2023-03-17T08:23:41.981Z,931.16
2023-03-17T08:24:41.938Z,931.06
2023-03-17T08:25:41.915Z,931.07
2023-03-17T08:26:41.979Z,931.08
2023-03-17T08:27:41.935Z,931.06
2023-03-17T08:28:41.876Z,930.99
2023-03-17T08:29:41.930Z,931.02
2023-03-17T08:30:41.992Z,931.06
2023-03-17T08:31:42.477Z,931.11
2023-03-17T08:32:41.914Z,930.99
2023-03-17T08:33:41.772Z,930.99
2023-03-17T08:34:41.809Z,930.94
2023-03-17T08:35:41.796Z,930.94
2023-03-17T08:36:41.769Z,930.95
2023-03-17T08:37:41.793Z,930.96
2023-03-17T08:38:41.747Z,930.91
2023-03-17T08:39:41.752Z,930.96
2023-03-17T08:40:41.728Z,930.95
2023-03-17T08:41:41.677Z,930.91
2023-03-17T08:42:41.661Z,930.92
2023-03-17T08:43:41.726Z,930.81
2023-03-17T08:44:43.951Z,930.87
2023-03-17T08:45:41.702Z,930.89
2023-03-17T08:46:41.626Z,930.87
2023-03-17T08:47:41.622Z,930.87
2023-03-17T08:48:41.595Z,930.88
2023-03-17T08:49:41.775Z,930.91
2023-03-17T08:50:41.557Z,930.91
2023-03-17T08:51:41.536Z,930.91
2023-03-17T08:52:41.649Z,930.94
2023-03-17T08:53:41.540Z,930.84
2023-03-17T08:54:41.572Z,930.82
2023-03-17T08:55:41.506Z,930.83
2023-03-17T08:56:41.516Z,930.77
2023-03-17T08:57:41.517Z,930.83
2023-03-17T08:58:41.496Z,930.77
2023-03-17T08:59:41.489Z,930.78
2023-03-17T09:00:41.482Z,930.76
2023-03-17T09:01:41.506Z,930.79
2023-03-17T09:02:41.564Z,930.76
2023-03-17T09:03:41.384Z,930.78
2023-03-17T09:04:41.419Z,930.73
2023-03-17T09:05:41.393Z,930.74
2023-03-17T09:06:51.894Z,930.74
2023-03-17T09:07:42.457Z,930.73
2023-03-17T09:08:41.385Z,930.71
2023-03-17T09:09:41.395Z,930.70
2023-03-17T09:10:44.197Z,930.68
2023-03-17T09:11:41.307Z,930.70
2023-03-17T09:12:41.312Z,930.63
2023-03-17T09:13:41.314Z,930.65
2023-03-17T09:14:44.140Z,930.68
2023-03-17T09:15:41.282Z,930.67
2023-03-17T09:16:41.191Z,930.65
2023-03-17T09:17:41.187Z,930.68
2023-03-17T09:18:41.197Z,930.66
2023-03-17T09:19:41.171Z,930.65
2023-03-17T09:20:41.198Z,930.62
2023-03-17T09:21:41.179Z,930.59
2023-03-17T09:22:41.150Z,930.53
2023-03-17T09:23:41.221Z,930.58
2023-03-17T09:24:41.110Z,930.55
2023-03-17T09:25:41.077Z,930.60
2023-03-17T09:26:41.056Z,930.54
2023-03-17T09:27:41.105Z,930.52
2023-03-17T09:28:41.068Z,930.57
2023-03-17T09:29:41.057Z,930.58
2023-03-17T09:30:41.127Z,930.52
2023-03-17T09:31:41.168Z,930.62
2023-03-17T09:32:41.077Z,930.48
2023-03-17T09:33:41.005Z,930.56
2023-03-17T09:34:40.976Z,930.53
2023-03-17T09:35:41.181Z,930.55
2023-03-17T09:36:41.053Z,930.56
2023-03-17T09:37:41.003Z,930.54
2023-03-17T09:38:40.951Z,930.53
2023-03-17T09:39:40.919Z,930.57
2023-03-17T09:40:40.940Z,930.52
2023-03-17T09:41:40.883Z,930.55
2023-03-17T09:42:40.923Z,930.53
2023-03-17T09:43:40.922Z,930.56
2023-03-17T09:44:40.914Z,930.48
2023-03-17T09:45:43.643Z,930.52
2023-03-17T09:46:40.966Z,930.58
2023-03-17T09:47:42.720Z,930.56
2023-03-17T09:48:40.871Z,930.57
2023-03-17T09:49:40.821Z,930.54
2023-03-17T09:50:40.840Z,930.54
2023-03-17T09:51:40.838Z,930.47
2023-03-17T09:52:40.824Z,930.51
2023-03-17T09:53:40.810Z,930.54
2023-03-17T09:54:40.774Z,930.48
2023-03-17T09:55:40.788Z,930.53
2023-03-17T09:56:40.848Z,930.52
2023-03-17T09:57:41.099Z,930.50
2023-03-17T09:58:40.967Z,930.53
2023-03-17T09:59:44.043Z,930.57
2023-03-17T10:00:40.844Z,930.56
2023-03-17T10:01:40.989Z,930.55
2023-03-17T10:02:40.648Z,930.58
2023-03-17T10:03:40.640Z,930.53
2023-03-17T10:04:40.607Z,930.52
2023-03-17T10:05:40.756Z,930.56
2023-03-17T10:06:40.599Z,930.52
2023-03-17T10:07:40.553Z,930.50
2023-03-17T10:08:40.573Z,930.52
2023-03-17T10:09:40.610Z,930.53
2023-03-17T10:10:40.501Z,930.48
2023-03-17T10:11:40.510Z,930.52
2023-03-17T10:12:40.536Z,930.53
2023-03-17T10:13:40.495Z,930.46
2023-03-17T10:14:40.535Z,930.44
2023-03-17T10:15:40.516Z,930.48
2023-03-17T10:16:40.484Z,930.47
2023-03-17T10:17:40.469Z,930.39
2023-03-17T10:18:40.461Z,930.41
2023-03-17T10:19:40.443Z,930.39
2023-03-17T10:20:40.386Z,930.41
2023-03-17T10:21:40.381Z,930.39
2023-03-17T10:22:40.379Z,930.37
2023-03-17T10:23:40.374Z,930.29
2023-03-17T10:24:40.317Z,930.33
2023-03-17T10:25:40.315Z,930.38
2023-03-17T10:26:40.294Z,930.39
2023-03-17T10:27:40.340Z,930.42
2023-03-17T10:28:40.294Z,930.40
2023-03-17T10:29:40.253Z,930.41
2023-03-17T10:30:40.288Z,930.37
2023-03-17T10:31:40.343Z,930.37
2023-03-17T10:32:40.282Z,930.37
2023-03-17T10:33:40.177Z,930.43
2023-03-17T10:34:40.188Z,930.38
2023-03-17T10:35:40.204Z,930.35
2023-03-17T10:36:40.204Z,930.38
2023-03-17T10:37:42.537Z,930.32
2023-03-17T10:38:40.156Z,930.25
2023-03-17T10:39:40.138Z,930.27
2023-03-17T10:40:40.132Z,930.26
2023-03-17T10:41:40.135Z,930.26
2023-03-17T10:42:40.103Z,930.26
2023-03-17T10:43:40.115Z,930.30
2023-03-17T10:44:40.105Z,930.25
2023-03-17T10:45:42.228Z,930.25
2023-03-17T10:46:40.099Z,930.29
2023-03-17T10:47:40.060Z,930.21
2023-03-17T10:48:40.078Z,930.21
2023-03-17T10:49:40.025Z,930.26
2023-03-17T10:50:39.978Z,930.29
2023-03-17T10:51:39.963Z,930.25
2023-03-17T10:52:39.976Z,930.31
2023-03-17T10:53:39.986Z,930.31
2023-03-17T10:54:39.906Z,930.33
2023-03-17T10:55:39.903Z,930.33
2023-03-17T10:56:39.926Z,930.27
2023-03-17T10:57:39.887Z,930.31
2023-03-17T10:58:39.946Z,930.26
2023-03-17T10:59:42.095Z,930.28
2023-03-17T11:00:39.899Z,930.26
2023-03-17T11:01:39.845Z,930.25
2023-03-17T11:02:39.841Z,930.24
2023-03-17T11:03:39.898Z,930.28
2023-03-17T11:04:39.838Z,930.22
2023-03-17T11:05:40.177Z,930.23
2023-03-17T11:06:39.739Z,930.19
2023-03-17T11:07:39.828Z,930.17
2023-03-17T11:08:39.753Z,930.20
2023-03-17T11:09:39.704Z,930.19
2023-03-17T11:10:39.704Z,930.24
2023-03-17T11:11:39.758Z,930.24
2023-03-17T11:12:39.729Z,930.26
2023-03-17T11:13:39.668Z,930.23
2023-03-17T11:14:39.690Z,930.19
2023-03-17T11:15:39.719Z,930.20
2023-03-17T11:16:39.661Z,930.21
2023-03-17T11:17:39.661Z,930.23
2023-03-17T11:18:39.639Z,930.17
2023-03-17T11:19:39.594Z,930.11
2023-03-17T11:20:39.630Z,930.21
2023-03-17T11:21:39.573Z,930.17
2023-03-17T11:22:39.572Z,930.15
2023-03-17T11:23:39.563Z,930.17
2023-03-17T11:24:39.531Z,930.17
2023-03-17T11:25:39.503Z,930.12
2023-03-17T11:26:39.600Z,930.13
2023-03-17T11:27:39.471Z,930.10
2023-03-17T11:28:39.441Z,930.11
2023-03-17T11:29:39.452Z,930.09
2023-03-17T11:30:39.452Z,930.10
2023-03-17T11:31:39.440Z,930.12
2023-03-17T11:32:39.625Z,930.03
2023-03-17T11:33:39.432Z,930.05
2023-03-17T11:34:39.390Z,930.02
2023-03-17T11:35:39.422Z,930.01
2023-03-17T11:36:39.428Z,930.05
2023-03-17T11:37:39.380Z,929.99
2023-03-17T11:38:39.373Z,929.96
2023-03-17T11:39:39.351Z,929.94
2023-03-17T11:40:39.340Z,929.94
2023-03-17T11:41:39.312Z,929.97
2023-03-17T11:42:39.298Z,929.89
2023-03-17T11:43:39.229Z,929.93
2023-03-17T11:44:39.283Z,929.86
2023-03-17T11:45:39.357Z,929.89
2023-03-17T11:46:39.274Z,929.91
2023-03-17T11:47:39.247Z,929.87
2023-03-17T11:48:39.250Z,929.88
2023-03-17T11:49:39.254Z,929.85
2023-03-17T11:50:39.207Z,929.90
2023-03-17T11:51:44.058Z,929.84
2023-03-17T11:52:42.982Z,929.85
2023-03-17T11:53:39.157Z,929.81
2023-03-17T11:54:39.158Z,929.82
2023-03-17T11:55:40.030Z,929.89
2023-03-17T11:56:43.296Z,929.85
2023-03-17T11:57:40.155Z,929.78
2023-03-17T11:58:39.127Z,929.85
2023-03-17T11:59:39.140Z,929.84
2023-03-17T12:00:39.356Z,929.81
2023-03-17T12:01:39.072Z,929.84
2023-03-17T12:02:39.004Z,929.83
2023-03-17T15:13:10.989Z,929.69
2023-03-17T15:14:10.274Z,929.70
2023-03-17T15:15:10.319Z,929.67
2023-03-17T15:16:10.387Z,929.72
2023-03-17T15:17:10.266Z,929.69
2023-03-17T15:18:10.211Z,929.70
2023-03-17T15:19:10.240Z,929.61
2023-03-17T15:20:10.219Z,929.65
2023-03-17T15:21:10.159Z,929.61
2023-03-17T15:22:10.208Z,929.63
2023-03-17T15:23:10.127Z,929.63
2023-03-17T15:24:10.124Z,929.62
2023-03-17T15:25:10.139Z,929.57
2023-03-17T15:26:10.117Z,929.63
2023-03-17T15:27:10.138Z,929.61
2023-03-17T15:28:10.051Z,929.53
2023-03-17T15:29:10.062Z,929.51
2023-03-17T15:30:10.047Z,929.56
2023-03-17T15:31:10.826Z,929.49
2023-03-17T15:32:10.050Z,929.49
2023-03-17T15:33:10.079Z,929.48
2023-03-17T15:34:10.007Z,929.43
2023-03-17T15:35:09.978Z,929.47
2023-03-17T15:36:11.312Z,929.44
2023-03-17T15:37:09.977Z,929.46
2023-03-17T15:38:09.955Z,929.43
2023-03-17T15:39:09.904Z,929.37
2023-03-17T15:40:09.916Z,929.40
2023-03-17T15:41:09.936Z,929.36
2023-03-17T15:42:09.885Z,929.49
2023-03-17T15:43:09.915Z,929.42
2023-03-17T15:44:09.864Z,929.39
2023-03-17T15:45:09.853Z,929.43
2023-03-17T15:46:09.810Z,929.35
2023-03-17T15:47:09.824Z,929.35
2023-03-17T15:48:09.776Z,929.42
2023-03-17T15:49:09.850Z,929.38
2023-03-17T15:50:09.785Z,929.36
2023-03-17T15:51:09.765Z,929.35
2023-03-17T15:52:09.800Z,929.36
2023-03-17T15:53:09.736Z,929.28
2023-03-17T15:54:09.771Z,929.33
2023-03-17T15:55:09.679Z,929.33
2023-03-17T15:56:09.680Z,929.28
2023-03-17T15:57:09.681Z,929.29
2023-03-17T15:58:09.695Z,929.30
2023-03-17T15:59:09.608Z,929.30
2023-03-17T16:00:09.689Z,929.30
2023-03-17T16:01:09.681Z,929.26
2023-03-17T16:02:09.645Z,929.26
2023-03-17T16:03:09.586Z,929.25
